Ashton, South Dakota
Current Conditions -  °F | °C
As of 5:34 AM on Saturday 20 Dec 2014 (Local Time) from KABR Reporting Station
Haze Haze  
Wind Chill: -8°   Ceiling: 200
Heat Index: -3°   Visibility: 1.7mi
Dew Point: -4°   Wind: 9mph
Humidity: 92%   Direction: 170°S
Pressure: 30"   Gusts: NA
Location:  44.99°N, 98.5°W
Report Text: KABR 201134Z AUTO 17008KT 1 3/4SM BR OVC002 M03/M04 A3000 RMK AO2 T10281039
Loading
Personal Weather Stations






























Interactive Weather Map New forecast layout! Learn more

10-Day Weather Forecast

Advertisements
Track Severe Weather on mobile